Time;durP1;ratioP1;P1;durP2;ratioP2;P2;SDS_P1;SDS_P2;PMS_P1;PMS_P2;Temp;Humidity;BMP_temperature;BMP_pressure;BME280_temperature;BME280_humidity;BME280_pressure;Samples;Min_cycle;Max_cycle;Signal;HPM_P1;HPM_P2
2021/06/14 00:00:18;;;;;;;5.20;3.00;;;14.90;99.90;;;;;;5066927;28;20322;-79
2021/06/14 00:02:48;;;;;;;6.07;2.87;;;14.80;99.90;;;;;;5067894;28;20251;-80
2021/06/14 00:05:20;;;;;;;8.23;3.10;;;14.80;99.90;;;;;;5068493;28;20254;-79
2021/06/14 00:07:49;;;;;;;6.67;3.00;;;14.80;99.90;;;;;;5070416;28;20874;-79
2021/06/14 00:10:19;;;;;;;4.80;3.17;;;14.90;99.90;;;;;;5070772;28;20235;-79
2021/06/14 00:12:47;;;;;;;4.83;2.97;;;14.80;99.90;;;;;;5067123;28;20714;-79
2021/06/14 00:15:36;;;;;;;4.42;2.79;;;14.80;99.90;;;;;;4212817;28;10001985;-79
2021/06/14 00:18:05;;;;;;;3.33;2.87;;;14.70;99.90;;;;;;2447120;28;10002088;-79
2021/06/14 00:20:34;;;;;;;6.93;3.00;;;14.70;99.90;;;;;;5068298;28;20492;-79
2021/06/14 00:23:04;;;;;;;5.30;3.13;;;14.70;99.90;;;;;;5071835;28;20242;-79
2021/06/14 00:25:33;;;;;;;3.97;2.80;;;14.70;99.90;;;;;;5058601;28;20264;-79
2021/06/14 00:28:02;;;;;;;4.63;3.10;;;14.60;99.90;;;;;;5069702;28;20238;-79
2021/06/14 00:30:35;;;;;;;4.57;3.40;;;14.70;99.90;;;;;;5091781;28;20241;-78
2021/06/14 00:33:05;;;;;;;5.20;2.93;;;14.80;99.90;;;;;;5085763;28;20297;-79
2021/06/14 00:35:34;;;;;;;3.67;2.67;;;14.70;99.90;;;;;;5070275;28;20238;-79
2021/06/14 00:38:02;;;;;;;4.70;3.07;;;14.70;99.90;;;;;;5070668;28;20265;-79
2021/06/14 00:40:31;;;;;;;6.67;3.63;;;14.70;99.90;;;;;;5071088;28;20227;-79
2021/06/14 00:43:00;;;;;;;4.07;3.20;;;14.60;99.90;;;;;;5075036;28;20277;-79
2021/06/14 00:45:31;;;;;;;4.97;2.80;;;14.50;99.90;;;;;;5061633;28;20235;-79
2021/06/14 00:47:59;;;;;;;7.37;3.10;;;14.60;99.90;;;;;;5059288;28;20231;-78
2021/06/14 00:50:37;;;;;;;4.53;3.17;;;14.50;99.90;;;;;;5072730;28;20606;-79
2021/06/14 00:53:10;;;;;;;6.50;3.63;;;14.40;99.90;;;;;;5072186;28;20232;-79
2021/06/14 00:55:39;;;;;;;4.57;3.17;;;14.50;99.90;;;;;;5074162;28;20318;-78
2021/06/14 00:58:09;;;;;;;5.07;3.37;;;14.50;99.90;;;;;;5068898;28;20231;-78
2021/06/14 01:00:38;;;;;;;6.03;3.10;;;14.40;99.90;;;;;;5070217;28;20233;-79
2021/06/14 01:03:07;;;;;;;4.87;3.40;;;14.40;99.90;;;;;;5074813;28;20696;-79
2021/06/14 01:05:39;;;;;;;4.10;3.00;;;14.50;99.90;;;;;;5074332;28;20651;-79
2021/06/14 01:08:09;;;;;;;6.53;3.70;;;14.40;99.90;;;;;;5058239;28;20230;-78
2021/06/14 01:10:40;;;;;;;4.20;3.03;;;14.30;99.90;;;;;;5091084;28;20260;-79
2021/06/14 01:13:21;;;;;;;3.73;3.33;;;14.30;99.90;;;;;;5084101;28;20238;-79
2021/06/14 01:15:56;;;;;;;6.63;3.60;;;14.30;99.90;;;;;;5070148;28;20243;-79
2021/06/14 01:18:30;;;;;;;5.83;3.70;;;14.30;99.90;;;;;;5070551;28;20230;-79
2021/06/14 01:21:12;;;;;;;5.47;3.70;;;14.20;99.90;;;;;;5069058;28;20246;-79
2021/06/14 01:24:04;;;;;;;5.00;3.40;;;14.20;99.90;;;;;;5067879;28;20234;-79
2021/06/14 01:26:41;;;;;;;4.20;3.20;;;14.10;99.90;;;;;;5032583;28;20686;-79
2021/06/14 01:29:14;;;;;;;3.47;3.17;;;14.20;99.90;;;;;;5074187;28;20231;-78
2021/06/14 01:31:45;;;;;;;4.73;3.63;;;14.10;99.90;;;;;;5069060;28;20267;-79
2021/06/14 01:34:14;;;;;;;6.03;3.33;;;14.10;99.90;;;;;;5081044;28;20230;-79
2021/06/14 01:36:43;;;;;;;4.73;3.30;;;14.10;99.90;;;;;;5070183;28;20231;-78
2021/06/14 01:39:13;;;;;;;5.23;3.83;;;14.00;99.90;;;;;;5068991;28;20764;-79
2021/06/14 01:41:44;;;;;;;6.00;3.67;;;13.90;99.90;;;;;;5070119;28;20239;-79
2021/06/14 01:44:20;;;;;;;4.13;3.50;;;14.00;99.90;;;;;;5069189;28;20237;-79
2021/06/14 01:46:50;;;;;;;5.33;3.67;;;14.00;99.90;;;;;;5052384;28;20239;-78
2021/06/14 01:49:20;;;;;;;5.07;3.63;;;13.90;99.90;;;;;;5084061;28;20295;-78
2021/06/14 01:51:55;;;;;;;5.07;3.27;;;13.90;99.90;;;;;;5053123;28;20320;-80
2021/06/14 01:54:27;;;;;;;6.77;3.60;;;13.90;99.90;;;;;;5048216;28;20866;-79
2021/06/14 01:57:03;;;;;;;5.00;3.97;;;13.90;99.90;;;;;;5068407;28;20564;-79
2021/06/14 01:59:47;;;;;;;3.50;3.20;;;13.90;99.90;;;;;;5087052;28;20317;-80
2021/06/14 02:02:24;;;;;;;5.57;4.07;;;13.90;99.90;;;;;;5043092;28;20243;-79
2021/06/14 02:04:53;;;;;;;3.90;3.27;;;13.90;99.90;;;;;;5071367;28;20237;-78
2021/06/14 02:07:32;;;;;;;6.03;3.87;;;13.90;99.90;;;;;;5089526;28;20234;-79
2021/06/14 02:10:02;;;;;;;6.33;3.67;;;14.00;99.90;;;;;;5051882;28;20330;-78
2021/06/14 02:12:31;;;;;;;5.47;3.90;;;14.00;99.90;;;;;;5068744;28;20609;-79
2021/06/14 02:15:01;;;;;;;4.70;3.80;;;14.00;99.90;;;;;;5069482;28;20235;-79
2021/06/14 02:17:32;;;;;;;5.03;3.90;;;14.00;99.90;;;;;;5051195;28;20321;-79
2021/06/14 02:20:04;;;;;;;6.60;4.30;;;13.90;99.90;;;;;;5051260;28;20235;-79
2021/06/14 02:22:38;;;;;;;5.77;4.00;;;14.00;99.90;;;;;;5068152;28;20276;-78
2021/06/14 02:25:10;;;;;;;4.47;3.90;;;14.00;99.90;;;;;;5071393;28;20686;-78
2021/06/14 02:27:39;;;;;;;5.07;3.40;;;14.00;99.90;;;;;;5081584;28;20237;-79
2021/06/14 02:30:17;;;;;;;4.57;3.80;;;13.90;99.90;;;;;;5068105;28;20237;-79
2021/06/14 02:32:45;;;;;;;6.70;3.97;;;14.00;99.90;;;;;;5067053;28;20250;-79
2021/06/14 02:35:15;;;;;;;4.50;4.10;;;14.00;99.90;;;;;;5051047;28;20387;-79
2021/06/14 02:37:46;;;;;;;6.87;4.33;;;14.00;99.90;;;;;;5066994;28;20246;-78
2021/06/14 02:40:17;;;;;;;6.50;4.47;;;14.00;99.90;;;;;;5069052;28;20264;-80
2021/06/14 02:42:46;;;;;;;6.13;3.93;;;14.00;99.90;;;;;;5068743;28;20234;-79
2021/06/14 02:45:15;;;;;;;6.43;5.10;;;14.00;99.90;;;;;;5070919;28;20272;-79
2021/06/14 02:47:46;;;;;;;6.77;4.60;;;13.80;99.90;;;;;;5085825;28;20615;-79
2021/06/14 02:50:18;;;;;;;6.93;4.60;;;13.80;99.90;;;;;;5067529;28;20323;-79
2021/06/14 02:52:49;;;;;;;7.73;4.53;;;13.70;99.90;;;;;;5069085;28;20250;-79
2021/06/14 02:55:20;;;;;;;6.17;4.40;;;13.80;99.90;;;;;;5070856;28;20268;-79
2021/06/14 02:57:52;;;;;;;7.53;4.60;;;14.00;99.90;;;;;;5087206;28;20293;-78
2021/06/14 03:00:25;;;;;;;5.87;4.50;;;14.00;99.90;;;;;;5070442;28;20234;-78
2021/06/14 03:03:00;;;;;;;5.60;4.50;;;14.00;99.90;;;;;;5073984;28;20881;-79
2021/06/14 03:05:29;;;;;;;7.93;4.37;;;14.00;99.90;;;;;;5069407;28;20617;-78
2021/06/14 03:07:58;;;;;;;5.90;4.57;;;14.00;99.90;;;;;;5073054;28;20229;-79
2021/06/14 03:10:30;;;;;;;7.07;5.30;;;13.90;99.90;;;;;;5071428;28;20253;-79
2021/06/14 03:13:01;;;;;;;5.93;4.67;;;13.80;99.90;;;;;;5058671;28;20228;-79
2021/06/14 03:15:34;;;;;;;7.83;4.67;;;13.80;99.90;;;;;;5050404;28;20250;-80
2021/06/14 03:18:04;;;;;;;7.33;4.63;;;13.70;99.90;;;;;;5068161;28;20245;-78
2021/06/14 03:20:36;;;;;;;7.37;4.60;;;13.70;99.90;;;;;;5066592;28;20707;-79
2021/06/14 03:23:05;;;;;;;6.13;4.53;;;13.80;99.90;;;;;;5055009;28;20291;-79
2021/06/14 03:25:33;;;;;;;8.63;5.57;;;13.80;99.90;;;;;;5088414;28;20283;-79
2021/06/14 03:28:04;;;;;;;6.57;4.70;;;13.80;99.90;;;;;;5078953;28;20237;-78
2021/06/14 03:30:34;;;;;;;8.27;4.97;;;13.70;99.90;;;;;;5067677;28;20235;-78
2021/06/14 03:33:05;;;;;;;5.97;4.40;;;13.70;99.90;;;;;;5072509;28;20286;-78
2021/06/14 03:35:35;;;;;;;5.80;4.50;;;13.90;99.90;;;;;;5088256;28;20327;-79
2021/06/14 03:38:04;;;;;;;7.53;4.57;;;14.00;99.90;;;;;;5070041;28;20240;-79
2021/06/14 03:40:32;;;;;;;8.53;4.60;;;14.10;99.90;;;;;;5073624;28;20262;-78
2021/06/14 03:43:02;;;;;;;5.20;4.30;;;14.10;99.90;;;;;;5072888;28;20739;-80
2021/06/14 03:45:31;;;;;;;6.30;4.80;;;14.10;99.90;;;;;;5088609;28;20257;-78
2021/06/14 03:48:01;;;;;;;5.93;4.30;;;14.10;99.90;;;;;;5088216;28;20236;-79
2021/06/14 03:50:30;;;;;;;8.63;4.30;;;14.10;99.90;;;;;;5086293;28;20375;-78
2021/06/14 03:52:58;;;;;;;5.70;4.67;;;14.30;99.90;;;;;;5067955;28;20731;-79
2021/06/14 03:55:27;;;;;;;6.10;4.30;;;14.30;99.90;;;;;;5067602;28;20239;-78
2021/06/14 03:57:55;;;;;;;7.20;5.17;;;14.20;99.90;;;;;;5068649;28;20258;-79
2021/06/14 04:00:24;;;;;;;7.47;4.30;;;14.20;99.90;;;;;;5071323;28;20249;-79
2021/06/14 04:02:52;;;;;;;6.53;4.17;;;14.20;99.90;;;;;;5058297;28;20634;-79
2021/06/14 04:05:31;;;;;;;7.90;4.70;;;14.20;99.90;;;;;;5090855;28;20238;-79
2021/06/14 04:08:12;;;;;;;7.77;4.97;;;14.20;99.90;;;;;;5091469;28;20589;-80
2021/06/14 04:10:41;;;;;;;7.40;4.30;;;14.20;99.90;;;;;;5059069;28;20248;-79
2021/06/14 04:13:09;;;;;;;10.47;5.03;;;14.30;99.90;;;;;;5062485;28;20317;-79
2021/06/14 04:15:37;;;;;;;5.97;4.33;;;14.30;99.90;;;;;;5091688;28;20317;-79
2021/06/14 04:18:06;;;;;;;5.67;4.33;;;14.50;99.90;;;;;;5069943;28;20259;-79
2021/06/14 04:20:36;;;;;;;7.10;4.30;;;14.70;99.90;;;;;;5070669;28;20227;-79
2021/06/14 04:23:05;;;;;;;6.47;3.70;;;14.80;99.90;;;;;;5076031;28;20309;-79
2021/06/14 04:25:33;;;;;;;3.97;3.57;;;15.00;99.90;;;;;;5091493;28;20239;-79
2021/06/14 04:28:03;;;;;;;5.97;4.10;;;15.10;99.90;;;;;;5087102;28;20314;-79
2021/06/14 04:30:31;;;;;;;5.13;3.63;;;15.10;99.90;;;;;;5070839;28;20242;-80
2021/06/14 04:32:59;;;;;;;5.67;3.93;;;15.20;99.90;;;;;;5074198;28;20253;-78
2021/06/14 04:35:27;;;;;;;7.67;4.10;;;15.30;99.90;;;;;;5091612;28;20304;-78
2021/06/14 04:37:58;;;;;;;6.03;3.90;;;15.40;99.90;;;;;;5087660;28;20320;-79
2021/06/14 04:40:27;;;;;;;4.70;3.37;;;15.50;99.90;;;;;;5058229;28;20594;-78
2021/06/14 04:42:55;;;;;;;7.07;3.93;;;15.50;99.90;;;;;;5036186;28;20235;-79
2021/06/14 04:45:26;;;;;;;7.87;4.23;;;15.30;99.90;;;;;;5050903;28;20228;-78
2021/06/14 04:47:54;;;;;;;6.47;4.10;;;15.40;99.90;;;;;;5054694;28;20353;-79
2021/06/14 04:50:23;;;;;;;6.70;4.30;;;15.60;99.90;;;;;;5071121;28;20641;-79
2021/06/14 04:52:52;;;;;;;8.43;3.83;;;15.60;99.90;;;;;;5073919;28;20288;-79
2021/06/14 04:55:22;;;;;;;5.47;3.67;;;15.60;99.90;;;;;;5053002;28;20231;-79
2021/06/14 04:57:50;;;;;;;5.33;3.40;;;15.70;99.90;;;;;;5073683;28;20248;-78
2021/06/14 05:00:20;;;;;;;4.43;3.23;;;15.60;99.90;;;;;;5082363;28;20227;-79
2021/06/14 05:02:49;;;;;;;4.87;3.50;;;15.60;99.90;;;;;;5072870;28;20229;-80
2021/06/14 05:05:18;;;;;;;7.33;4.07;;;15.70;99.90;;;;;;5070145;28;20721;-79
2021/06/14 05:07:46;;;;;;;6.37;3.90;;;15.70;99.90;;;;;;5072643;28;20322;-79
2021/06/14 05:10:14;;;;;;;11.70;4.47;;;15.70;99.90;;;;;;5084389;28;20238;-79
2021/06/14 05:12:44;;;;;;;7.43;3.70;;;15.70;99.90;;;;;;5069749;28;20310;-79
2021/06/14 05:15:13;;;;;;;4.57;3.57;;;15.90;99.90;;;;;;5069576;28;20239;-79
2021/06/14 05:17:41;;;;;;;7.00;4.00;;;16.00;99.90;;;;;;5054043;28;20581;-79
2021/06/14 05:20:16;;;;;;;7.77;4.07;;;16.20;99.90;;;;;;5090859;28;20666;-79
2021/06/14 05:22:45;;;;;;;7.53;4.40;;;16.40;99.90;;;;;;5067170;28;20639;-79
2021/06/14 05:25:15;;;;;;;6.53;4.00;;;16.60;99.90;;;;;;5044876;28;20332;-79
2021/06/14 05:27:44;;;;;;;8.30;4.47;;;16.80;99.90;;;;;;5068756;28;20276;-80
2021/06/14 05:30:14;;;;;;;6.43;3.83;;;17.10;99.90;;;;;;5078952;28;20261;-79
2021/06/14 05:32:42;;;;;;;7.07;3.73;;;17.20;99.90;;;;;;5072728;28;20319;-79
2021/06/14 05:35:11;;;;;;;6.43;3.57;;;17.40;99.90;;;;;;5067748;28;20234;-79
2021/06/14 05:37:41;;;;;;;6.07;3.50;;;17.50;99.90;;;;;;5066559;28;20334;-79
2021/06/14 05:40:11;;;;;;;5.27;3.80;;;17.80;99.90;;;;;;5065710;28;20254;-79
2021/06/14 05:42:39;;;;;;;5.97;2.93;;;18.00;99.90;;;;;;5053747;28;20239;-79
2021/06/14 05:45:10;;;;;;;4.87;3.03;;;18.20;99.90;;;;;;5068842;28;20259;-79
2021/06/14 05:47:38;;;;;;;6.07;3.17;;;18.40;99.90;;;;;;5067985;28;20575;-79
2021/06/14 05:50:07;;;;;;;5.40;3.33;;;18.40;99.90;;;;;;5067861;28;20236;-79
2021/06/14 05:52:36;;;;;;;6.77;2.97;;;18.50;99.90;;;;;;5048806;28;20235;-79
2021/06/14 05:55:06;;;;;;;6.43;3.50;;;18.40;99.90;;;;;;5057357;28;20244;-79
2021/06/14 05:57:34;;;;;;;6.00;3.30;;;18.60;99.90;;;;;;5062114;28;20328;-80
2021/06/14 06:00:04;;;;;;;7.77;3.70;;;18.80;99.90;;;;;;5055740;28;20286;-79
2021/06/14 06:02:40;;;;;;;7.33;3.33;;;19.00;99.90;;;;;;5054878;28;20245;-80
2021/06/14 06:05:10;;;;;;;6.57;3.60;;;19.30;99.90;;;;;;5067543;28;20229;-79
2021/06/14 06:07:38;;;;;;;6.43;4.20;;;19.60;99.90;;;;;;5066542;28;20328;-80
2021/06/14 06:10:09;;;;;;;6.73;3.37;;;19.80;99.90;;;;;;5048271;28;20243;-79
2021/06/14 06:12:37;;;;;;;6.63;3.80;;;20.00;99.90;;;;;;5053799;28;20238;-79
2021/06/14 06:15:09;;;;;;;7.33;3.40;;;20.10;99.90;;;;;;5088345;28;20236;-79
2021/06/14 06:17:37;;;;;;;6.40;3.13;;;19.90;99.90;;;;;;5078476;28;20318;-79
2021/06/14 06:20:09;;;;;;;7.17;3.87;;;20.00;99.90;;;;;;5088270;28;20290;-79
2021/06/14 06:22:38;;;;;;;8.77;3.70;;;20.00;99.90;;;;;;5070573;28;20876;-79
2021/06/14 06:25:07;;;;;;;6.27;3.57;;;20.30;99.90;;;;;;5067461;28;20237;-79
2021/06/14 06:27:35;;;;;;;7.83;3.67;;;20.50;99.90;;;;;;5072032;28;20631;-79
2021/06/14 06:30:05;;;;;;;8.53;3.57;;;20.60;99.90;;;;;;5088114;28;20569;-79
2021/06/14 06:32:34;;;;;;;7.30;3.83;;;20.70;99.90;;;;;;5072586;28;20246;-80
2021/06/14 06:35:02;;;;;;;7.00;3.80;;;20.70;99.90;;;;;;5267461;22;20276;-67
2021/06/14 06:37:32;;;;;;;5.63;3.80;;;20.90;99.90;;;;;;5022814;28;20238;-62
2021/06/14 06:40:00;;;;;;;7.97;3.83;;;21.00;99.90;;;;;;5043313;28;20238;-62
2021/06/14 06:42:28;;;;;;;6.53;3.40;;;21.00;99.90;;;;;;5045635;28;20258;-62
2021/06/14 06:44:56;;;;;;;7.10;3.70;;;21.30;99.90;;;;;;5047704;28;20239;-61
2021/06/14 06:47:25;;;;;;;6.57;3.90;;;21.40;99.90;;;;;;5045423;28;20234;-61
2021/06/14 06:49:53;;;;;;;7.17;4.10;;;21.40;99.90;;;;;;5046597;28;20245;-62
2021/06/14 06:52:21;;;;;;;7.77;3.93;;;21.30;99.90;;;;;;5047013;28;20242;-61
2021/06/14 06:54:51;;;;;;;8.30;4.23;;;21.40;99.90;;;;;;5041509;28;20494;-61
2021/06/14 06:57:20;;;;;;;8.10;3.83;;;21.70;99.90;;;;;;5046945;28;20782;-61
2021/06/14 06:59:48;;;;;;;6.03;4.30;;;22.00;99.90;;;;;;5046955;28;20289;-61
2021/06/14 07:02:16;;;;;;;7.30;4.27;;;22.10;99.90;;;;;;5051067;28;20243;-62
2021/06/14 07:04:45;;;;;;;11.13;4.70;;;22.10;99.90;;;;;;5061153;28;20246;-62
2021/06/14 07:07:14;;;;;;;7.07;3.97;;;22.00;99.90;;;;;;5055508;28;20236;-62
2021/06/14 07:09:42;;;;;;;8.50;4.37;;;21.90;99.90;;;;;;5047005;28;20232;-62
2021/06/14 07:12:12;;;;;;;6.63;4.07;;;22.10;99.90;;;;;;5046807;28;20243;-62
2021/06/14 07:14:40;;;;;;;6.87;3.83;;;22.50;99.90;;;;;;5045621;28;20248;-62
2021/06/14 07:17:09;;;;;;;7.80;3.87;;;22.80;99.90;;;;;;5046318;28;20293;-61
2021/06/14 07:19:37;;;;;;;8.30;4.20;;;23.00;99.90;;;;;;5046291;28;20267;-62
2021/06/14 07:22:05;;;;;;;7.83;4.10;;;23.00;99.90;;;;;;5046285;28;20270;-62
2021/06/14 07:24:34;;;;;;;6.20;4.03;;;23.10;99.90;;;;;;5046615;28;20243;-62
2021/06/14 07:27:02;;;;;;;7.67;4.37;;;23.40;99.90;;;;;;5047284;28;20715;-62
2021/06/14 07:29:31;;;;;;;9.03;4.33;;;23.70;99.90;;;;;;5046284;28;20745;-61
2021/06/14 07:31:59;;;;;;;9.33;4.23;;;23.70;99.90;;;;;;5045935;28;20232;-62
2021/06/14 07:34:28;;;;;;;9.67;4.07;;;23.70;99.90;;;;;;5046191;28;20236;-61
2021/06/14 07:36:56;;;;;;;8.53;4.10;;;23.60;99.90;;;;;;5048965;28;20250;-62
2021/06/14 07:39:25;;;;;;;9.13;4.10;;;24.10;99.90;;;;;;5066442;28;20633;-61
2021/06/14 07:41:54;;;;;;;6.10;3.60;;;24.10;99.90;;;;;;5066114;28;20231;-61
2021/06/14 07:44:24;;;;;;;7.47;4.13;;;24.10;99.90;;;;;;5066292;28;20711;-61
2021/06/14 07:46:57;;;;;;;7.27;3.80;;;24.20;99.90;;;;;;5066295;28;20540;-61
2021/06/14 07:49:25;;;;;;;6.33;3.90;;;24.40;99.90;;;;;;5065344;28;20519;-61
2021/06/14 07:51:53;;;;;;;5.30;3.70;;;24.60;99.90;;;;;;5066437;28;20235;-61
2021/06/14 07:54:22;;;;;;;7.87;4.27;;;24.80;99.90;;;;;;5064912;28;20251;-61
2021/06/14 07:56:51;;;;;;;7.73;4.00;;;25.10;99.90;;;;;;5074848;28;20251;-61
2021/06/14 07:59:19;;;;;;;6.30;3.80;;;25.20;99.90;;;;;;5070360;28;20244;-61
2021/06/14 08:01:48;;;;;;;10.60;3.80;;;25.40;99.90;;;;;;5066350;28;20573;-62
2021/06/14 08:04:17;;;;;;;7.10;3.63;;;25.60;99.90;;;;;;5066762;28;20297;-61
2021/06/14 08:06:45;;;;;;;6.00;3.80;;;25.90;99.90;;;;;;5066823;28;20274;-61
2021/06/14 08:09:16;;;;;;;6.27;3.90;;;26.10;99.90;;;;;;5065860;28;20236;-62
2021/06/14 08:11:46;;;;;;;7.03;4.03;;;25.80;99.90;;;;;;5066220;28;20640;-61
2021/06/14 08:14:14;;;;;;;6.23;3.80;;;25.90;99.90;;;;;;5066589;28;20377;-61
2021/06/14 08:16:43;;;;;;;6.47;4.20;;;25.90;99.90;;;;;;5066168;28;20228;-61
2021/06/14 08:19:16;;;;;;;6.20;3.87;;;25.70;99.90;;;;;;5066189;28;20760;-62
2021/06/14 08:27:16;;;;;;;6.63;3.73;;;26.00;99.90;;;;;;5056492;28;20287;-62
2021/06/14 08:29:44;;;;;;;7.67;3.97;;;26.00;99.90;;;;;;5066061;28;20643;-61
2021/06/14 08:32:12;;;;;;;5.50;3.70;;;25.90;99.90;;;;;;5065892;28;20442;-61
2021/06/14 08:34:40;;;;;;;5.30;3.63;;;25.80;99.90;;;;;;5062291;28;20303;-61
2021/06/14 08:37:10;;;;;;;5.53;3.80;;;25.80;99.90;;;;;;5063224;28;20245;-61
2021/06/14 08:39:38;;;;;;;7.27;3.87;;;26.00;99.90;;;;;;5062890;28;20596;-61
2021/06/14 08:42:07;;;;;;;8.20;4.07;;;26.20;99.90;;;;;;5063109;28;20253;-62
2021/06/14 08:44:36;;;;;;;5.40;3.77;;;26.20;99.90;;;;;;5062751;28;20316;-62
2021/06/14 08:47:06;;;;;;;4.20;3.40;;;26.60;99.90;;;;;;5067178;28;20245;-62
2021/06/14 08:49:35;;;;;;;5.87;3.93;;;26.90;98.50;;;;;;5066405;28;20253;-62
2021/06/14 08:52:04;;;;;;;5.97;3.70;;;26.80;98.10;;;;;;5067027;28;20294;-62
2021/06/14 08:54:37;;;;;;;6.77;3.50;;;26.60;98.70;;;;;;5066852;28;20238;-61
2021/06/14 08:57:06;;;;;;;5.87;3.77;;;26.70;98.90;;;;;;5066469;28;20321;-62
2021/06/14 08:59:34;;;;;;;6.77;3.87;;;27.10;98.30;;;;;;5066765;28;20733;-62
2021/06/14 09:02:02;;;;;;;6.03;3.73;;;27.00;98.30;;;;;;5066733;28;20291;-62
2021/06/14 09:04:32;;;;;;;6.80;3.93;;;27.20;98.30;;;;;;5066413;28;20311;-61
2021/06/14 09:07:01;;;;;;;7.23;3.53;;;27.20;97.30;;;;;;5067052;28;20268;-61
2021/06/14 09:09:30;;;;;;;10.90;4.13;;;27.20;97.30;;;;;;5045851;28;20333;-61
2021/06/14 09:12:08;;;;;;;7.00;3.63;;;27.20;96.40;;;;;;5046446;28;20334;-62
2021/06/14 09:14:38;;;;;;;5.20;3.30;;;27.40;96.40;;;;;;5046183;28;20234;-62
2021/06/14 09:17:09;;;;;;;6.43;3.97;;;27.30;96.10;;;;;;5046853;28;20251;-62
2021/06/14 09:19:40;;;;;;;5.37;3.10;;;27.30;96.40;;;;;;5046063;28;20296;-62
2021/06/14 09:22:15;;;;;;;7.23;3.70;;;27.60;97.10;;;;;;5045925;28;20705;-62
2021/06/14 09:24:54;;;;;;;7.93;3.73;;;27.40;96.30;;;;;;5046095;28;20282;-61
2021/06/14 09:27:32;;;;;;;6.00;3.60;;;27.30;97.00;;;;;;5046053;28;20743;-62
2021/06/14 09:30:15;;;;;;;5.90;3.47;;;27.30;96.80;;;;;;5045859;28;20253;-61
2021/06/14 09:32:56;;;;;;;7.13;3.50;;;27.50;97.60;;;;;;5046884;28;20351;-61
2021/06/14 09:35:26;;;;;;;6.53;3.63;;;28.00;97.00;;;;;;5056213;28;20256;-62
2021/06/14 09:38:03;;;;;;;8.63;3.47;;;28.20;95.70;;;;;;5045374;28;20658;-62
2021/06/14 09:40:36;;;;;;;5.43;3.13;;;28.30;95.80;;;;;;5062065;28;20603;-61
2021/06/14 09:43:07;;;;;;;6.27;3.57;;;28.50;95.50;;;;;;5063428;28;20248;-61
2021/06/14 09:45:41;;;;;;;5.77;3.77;;;28.80;95.00;;;;;;5065195;28;20325;-61
2021/06/14 09:48:17;;;;;;;6.37;3.57;;;28.80;94.80;;;;;;5065477;28;20748;-62
2021/06/14 09:50:47;;;;;;;5.13;3.63;;;28.60;95.20;;;;;;5065417;28;20239;-62
2021/06/14 09:53:20;;;;;;;4.63;3.50;;;28.40;95.40;;;;;;5061872;28;20234;-62
2021/06/14 09:55:50;;;;;;;6.87;3.40;;;28.30;94.00;;;;;;5060851;28;20563;-62
2021/06/14 09:58:22;;;;;;;6.70;3.40;;;28.70;95.40;;;;;;5034555;28;20235;-62
2021/06/14 10:00:55;;;;;;;6.90;3.50;;;29.40;94.30;;;;;;5053572;28;20247;-62
2021/06/14 10:03:26;;;;;;;9.60;3.67;;;29.50;93.00;;;;;;5051758;28;20263;-62
2021/06/14 10:05:57;;;;;;;7.20;3.53;;;29.50;93.30;;;;;;5052911;28;20243;-62
2021/06/14 10:08:28;;;;;;;5.57;3.77;;;29.60;93.90;;;;;;5051968;28;20633;-62
2021/06/14 10:11:04;;;;;;;6.83;3.40;;;29.50;92.90;;;;;;5050769;28;20246;-62
2021/06/14 10:13:35;;;;;;;6.03;3.50;;;29.30;93.50;;;;;;5039142;28;20881;-62
2021/06/14 10:16:05;;;;;;;8.00;3.67;;;29.20;92.70;;;;;;5042884;28;20753;-62
2021/06/14 10:18:36;;;;;;;7.30;3.70;;;29.20;93.20;;;;;;5043853;28;20231;-62
2021/06/14 10:21:11;;;;;;;6.40;3.50;;;29.30;92.20;;;;;;5042799;28;20325;-62
2021/06/14 10:23:40;;;;;;;6.17;3.00;;;29.50;92.30;;;;;;5039766;28;20754;-62
2021/06/14 10:26:08;;;;;;;6.13;3.73;;;29.70;91.90;;;;;;5043309;28;20799;-62
2021/06/14 10:28:38;;;;;;;5.40;3.40;;;29.60;92.00;;;;;;5042007;28;20242;-62
2021/06/14 10:31:06;;;;;;;7.57;4.00;;;29.90;93.30;;;;;;5042956;28;20281;-62
2021/06/14 10:33:34;;;;;;;6.83;3.60;;;29.80;91.50;;;;;;5038719;28;20235;-62
2021/06/14 10:36:05;;;;;;;7.87;3.23;;;30.10;92.80;;;;;;5042849;28;20326;-62
2021/06/14 10:38:50;;;;;;;7.20;3.50;;;30.20;92.10;;;;;;5042332;28;20708;-62
2021/06/14 10:41:20;;;;;;;6.13;3.90;;;30.50;92.00;;;;;;5039742;28;20661;-63
2021/06/14 10:43:50;;;;;;;6.40;3.47;;;30.70;90.80;;;;;;5039483;28;20244;-62
2021/06/14 10:46:20;;;;;;;6.30;3.60;;;30.90;90.70;;;;;;5043485;28;20683;-62
2021/06/14 10:48:55;;;;;;;6.70;3.43;;;31.50;91.70;;;;;;5041885;28;20382;-62
2021/06/14 10:51:25;;;;;;;5.33;3.37;;;31.60;91.20;;;;;;5040535;28;20297;-62
2021/06/14 10:54:05;;;;;;;6.03;3.37;;;31.10;89.40;;;;;;5039343;28;20254;-61
2021/06/14 10:56:33;;;;;;;5.57;3.17;;;30.80;87.80;;;;;;5025325;28;20332;-62
2021/06/14 10:59:04;;;;;;;4.47;3.30;;;30.70;90.20;;;;;;5035446;28;20603;-62
2021/06/14 11:01:34;;;;;;;5.57;3.40;;;30.80;90.40;;;;;;5036586;28;20239;-62
2021/06/14 11:04:04;;;;;;;3.77;2.67;;;30.90;89.60;;;;;;5032239;28;20768;-62
2021/06/14 11:06:33;;;;;;;7.03;3.20;;;30.60;90.00;;;;;;5040675;28;20247;-62
2021/06/14 11:09:11;;;;;;;6.87;3.67;;;30.40;90.10;;;;;;5045292;28;20706;-62
2021/06/14 11:11:48;;;;;;;5.77;3.03;;;30.40;89.30;;;;;;5049695;28;20803;-62
2021/06/14 11:14:29;;;;;;;5.73;3.20;;;30.40;88.80;;;;;;5050528;28;20282;-62
2021/06/14 11:17:02;;;;;;;5.87;3.07;;;30.00;90.50;;;;;;5053092;28;20341;-61
2021/06/14 11:19:37;;;;;;;4.30;3.17;;;29.90;90.60;;;;;;5052869;28;20249;-62
2021/06/14 11:22:05;;;;;;;5.37;2.93;;;30.30;90.90;;;;;;5051042;28;20910;-62
2021/06/14 11:24:35;;;;;;;5.80;3.20;;;31.00;89.80;;;;;;5052313;28;20234;-62
2021/06/14 11:27:04;;;;;;;4.97;2.80;;;31.10;90.00;;;;;;5052923;28;20255;-62
2021/06/14 11:29:43;;;;;;;5.47;3.13;;;31.10;87.40;;;;;;5052861;28;20243;-62
2021/06/14 11:32:19;;;;;;;5.80;3.30;;;30.90;90.10;;;;;;5050749;28;20242;-62
2021/06/14 11:34:50;;;;;;;6.80;3.60;;;31.00;89.00;;;;;;5052134;28;20316;-62
2021/06/14 11:37:19;;;;;;;8.20;3.10;;;31.10;88.20;;;;;;5052097;28;20245;-62
2021/06/14 11:39:58;;;;;;;5.57;3.30;;;31.10;89.80;;;;;;5054393;28;20231;-62
2021/06/14 11:42:28;;;;;;;5.97;2.83;;;30.90;89.00;;;;;;5060375;28;20729;-62
2021/06/14 11:45:00;;;;;;;4.37;2.97;;;30.90;86.80;;;;;;5049265;28;20782;-62
2021/06/14 11:47:29;;;;;;;6.83;3.00;;;30.80;87.10;;;;;;5065394;28;20231;-61
2021/06/14 11:50:01;;;;;;;5.97;3.17;;;30.80;86.70;;;;;;5051973;28;20238;-61
2021/06/14 11:52:33;;;;;;;5.47;3.10;;;30.60;87.70;;;;;;5065408;28;20304;-62
2021/06/14 11:55:05;;;;;;;5.50;3.10;;;31.00;89.00;;;;;;5055055;28;20253;-62
2021/06/14 11:57:39;;;;;;;8.13;2.93;;;31.10;85.70;;;;;;5063658;28;20249;-61
2021/06/14 12:00:12;;;;;;;6.10;3.47;;;30.50;86.40;;;;;;5063495;28;20668;-62
2021/06/14 12:02:41;;;;;;;4.33;3.10;;;30.00;88.40;;;;;;5063152;28;20239;-62
2021/06/14 12:05:11;;;;;;;4.37;2.87;;;29.70;89.50;;;;;;5048400;28;20289;-62
2021/06/14 12:07:42;;;;;;;4.90;3.20;;;29.60;89.20;;;;;;5066253;28;20252;-62
2021/06/14 12:10:13;;;;;;;5.77;3.17;;;29.70;88.90;;;;;;5067333;28;20268;-62
2021/06/14 12:12:44;;;;;;;6.40;3.17;;;29.40;90.00;;;;;;5066347;28;20281;-62
2021/06/14 12:15:15;;;;;;;5.07;2.90;;;29.40;90.40;;;;;;5067641;28;20235;-62
2021/06/14 12:17:48;;;;;;;5.30;3.00;;;29.50;90.20;;;;;;5063549;28;20300;-62
2021/06/14 12:20:24;;;;;;;5.20;3.20;;;29.50;91.10;;;;;;5055548;28;20232;-62
2021/06/14 12:22:59;;;;;;;4.90;3.07;;;29.70;90.00;;;;;;5050828;28;20247;-62
2021/06/14 12:25:29;;;;;;;7.77;2.93;;;29.50;90.10;;;;;;5047821;28;20239;-62
2021/06/14 12:28:01;;;;;;;6.57;3.20;;;29.30;90.10;;;;;;5056678;28;20239;-62
2021/06/14 12:30:32;;;;;;;5.83;3.10;;;29.30;91.20;;;;;;5067286;28;20255;-62
2021/06/14 12:33:00;;;;;;;5.17;2.80;;;29.30;90.80;;;;;;5066364;28;20242;-62
2021/06/14 12:35:30;;;;;;;5.53;3.07;;;29.10;90.70;;;;;;5072718;28;20235;-62
2021/06/14 12:38:07;;;;;;;5.73;2.97;;;29.20;90.30;;;;;;5066467;28;20268;-62
2021/06/14 12:40:36;;;;;;;4.30;2.90;;;29.10;90.70;;;;;;5066042;28;20342;-62
2021/06/14 12:43:06;;;;;;;6.97;2.90;;;29.00;90.90;;;;;;5066068;28;20318;-62
2021/06/14 12:45:38;;;;;;;5.07;2.70;;;28.90;90.90;;;;;;5066214;28;20244;-62
2021/06/14 12:48:08;;;;;;;5.27;2.80;;;28.90;90.70;;;;;;5065028;28;20267;-62
2021/06/14 12:50:38;;;;;;;4.13;2.73;;;28.80;91.00;;;;;;5065582;28;20863;-62
2021/06/14 12:53:07;;;;;;;5.03;2.50;;;29.00;91.50;;;;;;5065660;28;20241;-62
2021/06/14 12:55:38;;;;;;;4.40;2.53;;;29.10;90.80;;;;;;5065793;28;20231;-62
2021/06/14 12:58:08;;;;;;;3.80;2.50;;;29.00;90.10;;;;;;5065256;28;20257;-62
2021/06/14 13:00:39;;;;;;;6.07;3.13;;;29.00;91.00;;;;;;5064406;28;20239;-62
2021/06/14 13:03:08;;;;;;;5.27;2.87;;;28.80;90.50;;;;;;5045384;28;20726;-62
2021/06/14 13:05:41;;;;;;;4.73;2.83;;;28.70;90.80;;;;;;5061693;28;20629;-62
2021/06/14 13:08:12;;;;;;;5.33;2.97;;;28.90;91.80;;;;;;5063561;28;20262;-62